TimeEST,TemperatureF,Dew PointF,Humidity,Sea Level PressureIn,VisibilityMPH,Wind Direction,Wind SpeedMPH,Gust SpeedMPH,PrecipitationIn,Events,Conditions,WindDirDegrees,DateUTC
12:15 AM,57.2,51.8,82,30.29,7.0,Calm,Calm,-,N/A,,Clear,0,2012-12-02 05:15:00
12:35 AM,55.4,51.8,88,30.29,6.0,Calm,Calm,-,N/A,,Clear,0,2012-12-02 05:35:00
12:55 AM,57.2,51.8,82,30.28,7.0,Calm,Calm,-,N/A,,Partly Cloudy,0,2012-12-02 05:55:00
1:15 AM,55.4,51.8,88,30.28,7.0,NNE,3.5,-,N/A,,Partly Cloudy,20,2012-12-02 06:15:00
1:35 AM,55.4,50.0,82,30.28,2.0,North,3.5,-,N/A,,Clear,10,2012-12-02 06:35:00
1:55 AM,55.4,51.8,88,30.28,8.0,NNE,3.5,-,N/A,,Partly Cloudy,20,2012-12-02 06:55:00
2:15 AM,57.2,53.6,88,30.27,10.0,Calm,Calm,-,N/A,,Mostly Cloudy,0,2012-12-02 07:15:00
2:35 AM,57.2,53.6,88,30.27,9.0,NE,3.5,-,N/A,,Overcast,40,2012-12-02 07:35:00
2:55 AM,59.0,53.6,82,30.27,10.0,Calm,Calm,-,N/A,,Overcast,0,2012-12-02 07:55:00
3:15 AM,59.0,55.4,88,30.26,10.0,NE,3.5,-,N/A,,Overcast,50,2012-12-02 08:15:00
3:35 AM,59.0,53.6,82,30.26,10.0,NE,3.5,-,N/A,,Mostly Cloudy,40,2012-12-02 08:35:00
3:55 AM,57.2,53.6,88,30.27,10.0,NNE,3.5,-,N/A,,Partly Cloudy,30,2012-12-02 08:55:00
4:15 AM,57.2,53.6,88,30.27,10.0,NNE,3.5,-,N/A,,Clear,30,2012-12-02 09:15:00
4:35 AM,57.2,53.6,88,30.27,8.0,Calm,Calm,-,N/A,,Clear,0,2012-12-02 09:35:00
4:55 AM,57.2,53.6,88,30.27,3.0,Calm,Calm,-,N/A,,Clear,0,2012-12-02 09:55:00
5:15 AM,55.4,51.8,88,30.27,1.5,Calm,Calm,-,N/A,,Clear,0,2012-12-02 10:15:00
5:35 AM,55.4,51.8,88,30.28,0.8,NNE,3.5,-,N/A,,Unknown,20,2012-12-02 10:35:00
5:55 AM,53.6,50.0,88,30.28,2.5,NNE,3.5,-,N/A,,Clear,30,2012-12-02 10:55:00
6:15 AM,53.6,50.0,88,30.29,5.0,NNE,3.5,-,N/A,,Clear,30,2012-12-02 11:15:00
6:35 AM,53.6,50.0,88,30.29,5.0,Calm,Calm,-,N/A,,Clear,0,2012-12-02 11:35:00
6:50 AM,53.6,50.0,88,30.29,5.0,NNE,3.5,-,N/A,,Clear,20,2012-12-02 11:50:00
7:50 AM,55.4,51.8,88,30.30,5.0,NNE,3.5,-,N/A,,Clear,20,2012-12-02 12:50:00
8:50 AM,64.4,57.2,77,30.32,10.0,NNE,3.5,-,N/A,,Clear,20,2012-12-02 13:50:00
9:50 AM,69.8,57.2,64,30.33,10.0,NE,5.8,-,N/A,,Clear,40,2012-12-02 14:50:00
10:50 AM,73.4,57.2,57,30.32,10.0,ENE,6.9,-,N/A,,Clear,70,2012-12-02 15:50:00
11:50 AM,75.2,57.2,53,30.30,10.0,ENE,5.8,-,N/A,,Clear,70,2012-12-02 16:50:00
12:50 PM,78.8,55.4,44,30.27,10.0,ENE,6.9,-,N/A,,Scattered Clouds,60,2012-12-02 17:50:00
1:50 PM,78.8,51.8,39,30.24,10.0,ENE,6.9,-,N/A,,Scattered Clouds,60,2012-12-02 18:50:00
2:50 PM,80.6,51.8,37,30.23,10.0,ENE,5.8,-,N/A,,Scattered Clouds,70,2012-12-02 19:50:00
4:50 PM,77.0,55.4,47,30.23,10.0,NE,6.9,-,N/A,,Partly Cloudy,50,2012-12-02 21:50:00
5:50 PM,73.4,55.4,53,30.24,10.0,NE,3.5,-,N/A,,Clear,50,2012-12-02 22:50:00
6:50 PM,66.2,55.4,68,30.25,10.0,Calm,Calm,-,N/A,,Clear,0,2012-12-02 23:50:00
7:55 PM,68.0,57.2,68,30.26,10.0,ENE,5.8,-,N/A,,Clear,60,2012-12-03 00:55:00
8:15 PM,68.0,57.2,68,30.26,10.0,NE,3.5,-,N/A,,Clear,50,2012-12-03 01:15:00
8:35 PM,66.2,57.2,73,30.27,10.0,ENE,5.8,-,N/A,,Clear,60,2012-12-03 01:35:00
8:55 PM,66.2,57.2,73,30.27,10.0,ENE,5.8,-,N/A,,Clear,60,2012-12-03 01:55:00
9:15 PM,66.2,57.2,73,30.27,10.0,East,5.8,-,N/A,,Clear,80,2012-12-03 02:15:00
9:35 PM,64.4,57.2,77,30.27,10.0,East,3.5,-,N/A,,Clear,100,2012-12-03 02:35:00
9:55 PM,64.4,57.2,77,30.27,10.0,East,3.5,-,N/A,,Clear,80,2012-12-03 02:55:00
10:15 PM,64.4,57.2,77,30.27,10.0,East,3.5,-,N/A,,Clear,90,2012-12-03 03:15:00
10:35 PM,64.4,57.2,77,30.27,10.0,ENE,4.6,-,N/A,,Clear,70,2012-12-03 03:35:00
10:55 PM,64.4,57.2,77,30.27,10.0,ENE,3.5,-,N/A,,Clear,60,2012-12-03 03:55:00
11:15 PM,62.6,57.2,82,30.27,10.0,ENE,3.5,-,N/A,,Clear,60,2012-12-03 04:15:00
11:35 PM,62.6,57.2,82,30.27,10.0,Calm,Calm,-,N/A,,Clear,0,2012-12-03 04:35:00
11:55 PM,62.6,57.2,82,30.27,10.0,East,3.5,-,N/A,,Clear,80,2012-12-03 04:55:00